Greenleafton, Minnesota
Current Conditions -  °F | °C
As of 4:56 PM on Monday 24 Nov 2014 (Local Time) from KFKA Reporting Station
Overcast Overcast  
Wind Chill: -2°   Ceiling: 1400
Heat Index: 17°   Visibility: 7mi
Dew Point: 13°   Wind: 25mph
Humidity: 84%   Direction: 300°WNW
Pressure: 29.62"   Gusts: 30mph
Location:  43.6343°N, 92.1426°W
Report Text: KFKA 242256Z AUTO 30022G26KT 7SM OVC014 M08/M11 A2962 RMK AO2 T10841107
Loading
Personal Weather Stations






























Interactive Weather Map New forecast layout! Learn more

10-Day Weather Forecast

Advertisements
Track Severe Weather on mobile